sensor_id;sensor_type;location;lat;lon;timestamp;noise_LAeq;noise_LA_min;noise_LA_max;noise_LA01;noise_LA95
41704;Laerm;861;48.808;9.006;2024-02-23T00:00:20;28.09;26.60;29.19;;
41704;Laerm;861;48.808;9.006;2024-02-23T00:02:47;28.13;26.45;29.29;;
41704;Laerm;861;48.808;9.006;2024-02-23T00:05:14;28.18;26.96;29.34;;
41704;Laerm;861;48.808;9.006;2024-02-23T00:07:41;28.23;26.97;29.39;;
41704;Laerm;861;48.808;9.006;2024-02-23T00:10:08;28.25;26.87;29.61;;
41704;Laerm;861;48.808;9.006;2024-02-23T00:12:34;28.26;27.10;29.41;;
41704;Laerm;861;48.808;9.006;2024-02-23T00:15:01;28.26;27.01;29.41;;
41704;Laerm;861;48.808;9.006;2024-02-23T00:17:28;28.27;26.83;29.33;;
41704;Laerm;861;48.808;9.006;2024-02-23T00:19:54;28.27;26.95;29.50;;
41704;Laerm;861;48.808;9.006;2024-02-23T00:22:21;28.29;27.12;29.40;;
41704;Laerm;861;48.808;9.006;2024-02-23T00:24:47;28.30;27.07;29.46;;
41704;Laerm;861;48.808;9.006;2024-02-23T00:27:14;28.31;27.07;29.62;;
41704;Laerm;861;48.808;9.006;2024-02-23T00:29:41;28.30;26.98;29.57;;
41704;Laerm;861;48.808;9.006;2024-02-23T00:32:07;28.29;27.07;29.41;;
41704;Laerm;861;48.808;9.006;2024-02-23T00:34:34;28.32;26.97;29.69;;
41704;Laerm;861;48.808;9.006;2024-02-23T00:37:00;28.34;27.14;29.49;;
41704;Laerm;861;48.808;9.006;2024-02-23T00:39:27;28.39;27.25;29.47;;
41704;Laerm;861;48.808;9.006;2024-02-23T00:41:53;28.56;27.28;29.75;;
41704;Laerm;861;48.808;9.006;2024-02-23T00:44:20;29.51;27.67;31.64;;
41704;Laerm;861;48.808;9.006;2024-02-23T00:46:46;32.13;29.86;33.69;;
41704;Laerm;861;48.808;9.006;2024-02-23T00:49:13;33.15;31.82;34.36;;
41704;Laerm;861;48.808;9.006;2024-02-23T00:51:39;33.98;32.39;35.35;;
41704;Laerm;861;48.808;9.006;2024-02-23T00:54:06;35.80;33.33;38.07;;
41704;Laerm;861;48.808;9.006;2024-02-23T00:56:34;37.44;36.21;38.75;;
41704;Laerm;861;48.808;9.006;2024-02-23T00:59:01;37.55;36.29;39.04;;
41704;Laerm;861;48.808;9.006;2024-02-23T01:01:28;37.65;36.30;39.19;;
41704;Laerm;861;48.808;9.006;2024-02-23T01:03:55;37.65;36.49;40.17;;
41704;Laerm;861;48.808;9.006;2024-02-23T01:06:22;37.64;36.49;38.88;;
41704;Laerm;861;48.808;9.006;2024-02-23T01:08:48;37.71;36.27;38.87;;
41704;Laerm;861;48.808;9.006;2024-02-23T01:11:15;37.71;36.47;39.09;;
41704;Laerm;861;48.808;9.006;2024-02-23T01:13:41;37.75;36.55;42.97;;
41704;Laerm;861;48.808;9.006;2024-02-23T01:16:08;37.63;36.35;38.93;;
41704;Laerm;861;48.808;9.006;2024-02-23T01:18:34;37.69;36.50;40.91;;
41704;Laerm;861;48.808;9.006;2024-02-23T01:21:01;37.68;36.37;38.98;;
41704;Laerm;861;48.808;9.006;2024-02-23T01:23:27;37.69;36.33;38.80;;
41704;Laerm;861;48.808;9.006;2024-02-23T01:25:54;37.68;36.53;39.06;;
41704;Laerm;861;48.808;9.006;2024-02-23T01:28:20;37.66;36.52;38.96;;
41704;Laerm;861;48.808;9.006;2024-02-23T01:30:47;37.66;36.49;38.76;;
41704;Laerm;861;48.808;9.006;2024-02-23T01:33:13;37.66;36.48;38.80;;
41704;Laerm;861;48.808;9.006;2024-02-23T01:35:40;37.67;36.10;38.91;;
41704;Laerm;861;48.808;9.006;2024-02-23T01:38:07;37.64;36.33;38.98;;
41704;Laerm;861;48.808;9.006;2024-02-23T01:40:34;37.69;36.53;39.01;;
41704;Laerm;861;48.808;9.006;2024-02-23T01:43:04;37.64;36.19;38.74;;
41704;Laerm;861;48.808;9.006;2024-02-23T01:45:34;37.68;36.43;38.90;;
41704;Laerm;861;48.808;9.006;2024-02-23T01:48:02;37.64;36.39;38.87;;
41704;Laerm;861;48.808;9.006;2024-02-23T01:50:30;37.60;36.06;38.89;;
41704;Laerm;861;48.808;9.006;2024-02-23T01:53:02;37.60;36.31;38.76;;
41704;Laerm;861;48.808;9.006;2024-02-23T01:55:31;37.60;36.26;39.01;;
41704;Laerm;861;48.808;9.006;2024-02-23T01:58:00;37.61;36.31;39.08;;
41704;Laerm;861;48.808;9.006;2024-02-23T02:00:29;37.63;36.28;38.63;;
41704;Laerm;861;48.808;9.006;2024-02-23T02:02:56;37.65;36.11;38.74;;
41704;Laerm;861;48.808;9.006;2024-02-23T02:05:24;37.60;36.33;38.90;;
41704;Laerm;861;48.808;9.006;2024-02-23T02:07:55;34.86;32.60;38.04;;
41704;Laerm;861;48.808;9.006;2024-02-23T02:10:26;33.50;32.12;35.12;;
41704;Laerm;861;48.808;9.006;2024-02-23T02:13:01;36.24;33.51;37.81;;
41704;Laerm;861;48.808;9.006;2024-02-23T02:15:28;37.07;35.86;38.16;;
41704;Laerm;861;48.808;9.006;2024-02-23T02:17:55;37.08;35.91;38.34;;
41704;Laerm;861;48.808;9.006;2024-02-23T02:20:27;36.61;35.37;37.85;;
41704;Laerm;861;48.808;9.006;2024-02-23T02:22:55;36.43;35.03;37.60;;
41704;Laerm;861;48.808;9.006;2024-02-23T02:25:21;36.39;35.05;37.46;;
41704;Laerm;861;48.808;9.006;2024-02-23T02:27:48;36.42;35.08;37.62;;
41704;Laerm;861;48.808;9.006;2024-02-23T02:30:15;36.37;34.93;37.44;;
41704;Laerm;861;48.808;9.006;2024-02-23T02:32:46;36.49;35.21;37.74;;
41704;Laerm;861;48.808;9.006;2024-02-23T02:35:13;36.93;35.53;38.03;;
41704;Laerm;861;48.808;9.006;2024-02-23T02:37:39;37.03;35.84;38.07;;
41704;Laerm;861;48.808;9.006;2024-02-23T02:40:07;37.04;35.47;38.17;;
41704;Laerm;861;48.808;9.006;2024-02-23T02:42:34;37.08;35.60;38.24;;
41704;Laerm;861;48.808;9.006;2024-02-23T02:45:01;37.28;36.08;38.52;;
41704;Laerm;861;48.808;9.006;2024-02-23T02:47:29;37.44;36.14;38.70;;
41704;Laerm;861;48.808;9.006;2024-02-23T02:49:55;37.66;36.38;39.03;;
41704;Laerm;861;48.808;9.006;2024-02-23T02:52:22;37.70;36.42;39.22;;
41704;Laerm;861;48.808;9.006;2024-02-23T02:54:50;37.74;36.50;38.97;;
41704;Laerm;861;48.808;9.006;2024-02-23T02:57:17;37.78;36.48;38.96;;
41704;Laerm;861;48.808;9.006;2024-02-23T02:59:43;37.83;36.54;39.23;;
41704;Laerm;861;48.808;9.006;2024-02-23T03:02:11;37.83;36.48;40.80;;
41704;Laerm;861;48.808;9.006;2024-02-23T03:04:38;37.83;36.46;40.90;;
41704;Laerm;861;48.808;9.006;2024-02-23T03:07:04;37.85;36.40;41.96;;
41704;Laerm;861;48.808;9.006;2024-02-23T03:09:31;37.85;36.61;39.97;;
41704;Laerm;861;48.808;9.006;2024-02-23T03:11:57;37.90;36.45;43.12;;
41704;Laerm;861;48.808;9.006;2024-02-23T03:14:25;37.85;36.38;39.12;;
41704;Laerm;861;48.808;9.006;2024-02-23T03:16:52;37.86;36.08;43.04;;
41704;Laerm;861;48.808;9.006;2024-02-23T03:19:18;37.85;36.42;44.33;;
41704;Laerm;861;48.808;9.006;2024-02-23T03:21:49;37.98;36.65;47.57;;
41704;Laerm;861;48.808;9.006;2024-02-23T03:24:16;38.13;36.43;50.91;;
41704;Laerm;861;48.808;9.006;2024-02-23T03:26:42;37.99;36.49;45.23;;
41704;Laerm;861;48.808;9.006;2024-02-23T03:29:10;37.88;36.37;40.57;;
41704;Laerm;861;48.808;9.006;2024-02-23T03:31:37;37.88;36.40;41.19;;
41704;Laerm;861;48.808;9.006;2024-02-23T03:34:04;37.90;36.61;44.36;;
41704;Laerm;861;48.808;9.006;2024-02-23T03:36:30;37.82;36.23;40.54;;
41704;Laerm;861;48.808;9.006;2024-02-23T03:38:57;37.85;36.53;44.66;;
41704;Laerm;861;48.808;9.006;2024-02-23T03:41:23;37.83;36.47;41.88;;
41704;Laerm;861;48.808;9.006;2024-02-23T03:43:50;37.88;36.60;42.94;;
41704;Laerm;861;48.808;9.006;2024-02-23T03:46:16;37.81;36.48;39.11;;
41704;Laerm;861;48.808;9.006;2024-02-23T03:48:45;37.89;36.49;43.66;;
41704;Laerm;861;48.808;9.006;2024-02-23T03:51:13;37.86;36.63;44.53;;
41704;Laerm;861;48.808;9.006;2024-02-23T03:53:39;37.79;36.51;41.63;;
41704;Laerm;861;48.808;9.006;2024-02-23T03:56:06;37.86;36.56;48.02;;
41704;Laerm;861;48.808;9.006;2024-02-23T03:58:33;37.85;36.46;42.37;;
41704;Laerm;861;48.808;9.006;2024-02-23T04:01:02;37.84;36.53;44.56;;
41704;Laerm;861;48.808;9.006;2024-02-23T04:03:29;38.01;36.52;44.98;;
41704;Laerm;861;48.808;9.006;2024-02-23T04:05:56;37.90;36.49;44.54;;
41704;Laerm;861;48.808;9.006;2024-02-23T04:08:22;37.83;36.43;42.09;;
41704;Laerm;861;48.808;9.006;2024-02-23T04:10:49;37.82;36.61;41.76;;
41704;Laerm;861;48.808;9.006;2024-02-23T04:13:15;37.78;36.37;39.46;;
41704;Laerm;861;48.808;9.006;2024-02-23T04:15:44;37.88;36.51;46.30;;
41704;Laerm;861;48.808;9.006;2024-02-23T04:18:11;37.86;36.58;42.11;;
41704;Laerm;861;48.808;9.006;2024-02-23T04:20:38;37.88;36.53;43.37;;
41704;Laerm;861;48.808;9.006;2024-02-23T04:23:04;37.82;36.44;39.72;;
41704;Laerm;861;48.808;9.006;2024-02-23T04:25:31;37.81;36.13;43.15;;
41704;Laerm;861;48.808;9.006;2024-02-23T04:27:58;37.77;36.53;38.97;;
41704;Laerm;861;48.808;9.006;2024-02-23T04:30:24;37.70;36.43;38.68;;
41704;Laerm;861;48.808;9.006;2024-02-23T04:32:51;37.68;36.37;38.80;;
41704;Laerm;861;48.808;9.006;2024-02-23T04:35:17;37.75;36.24;43.22;;
41704;Laerm;861;48.808;9.006;2024-02-23T04:37:45;37.78;36.22;39.79;;
41704;Laerm;861;48.808;9.006;2024-02-23T04:40:12;37.75;36.53;39.17;;
41704;Laerm;861;48.808;9.006;2024-02-23T04:42:39;37.75;36.58;39.42;;
41704;Laerm;861;48.808;9.006;2024-02-23T04:45:06;37.77;36.39;39.92;;
41704;Laerm;861;48.808;9.006;2024-02-23T04:47:33;37.74;36.40;39.03;;
41704;Laerm;861;48.808;9.006;2024-02-23T04:50:00;37.80;36.51;38.96;;
41704;Laerm;861;48.808;9.006;2024-02-23T04:52:26;37.77;36.19;38.96;;
41704;Laerm;861;48.808;9.006;2024-02-23T04:54:53;37.80;36.44;39.03;;
41704;Laerm;861;48.808;9.006;2024-02-23T04:57:20;37.75;36.38;38.98;;
41704;Laerm;861;48.808;9.006;2024-02-23T04:59:46;37.81;36.36;39.01;;
41704;Laerm;861;48.808;9.006;2024-02-23T05:02:13;37.78;36.53;39.41;;
41704;Laerm;861;48.808;9.006;2024-02-23T05:04:41;37.76;36.37;39.03;;
41704;Laerm;861;48.808;9.006;2024-02-23T05:07:07;37.77;36.39;39.13;;
41704;Laerm;861;48.808;9.006;2024-02-23T05:09:34;37.78;36.47;39.16;;
41704;Laerm;861;48.808;9.006;2024-02-23T05:12:01;37.77;36.45;38.94;;
41704;Laerm;861;48.808;9.006;2024-02-23T05:14:28;37.80;36.52;39.07;;
41704;Laerm;861;48.808;9.006;2024-02-23T05:16:54;37.80;36.48;39.11;;
41704;Laerm;861;48.808;9.006;2024-02-23T05:19:21;37.79;36.56;39.12;;
41704;Laerm;861;48.808;9.006;2024-02-23T05:21:47;37.77;36.45;39.05;;
41704;Laerm;861;48.808;9.006;2024-02-23T05:24:14;37.79;36.55;39.18;;
41704;Laerm;861;48.808;9.006;2024-02-23T05:26:40;37.78;36.53;39.15;;
41704;Laerm;861;48.808;9.006;2024-02-23T05:29:07;37.77;36.25;38.90;;
41704;Laerm;861;48.808;9.006;2024-02-23T05:31:51;37.71;36.40;39.14;;
41704;Laerm;861;48.808;9.006;2024-02-23T05:34:18;37.72;36.29;38.88;;
41704;Laerm;861;48.808;9.006;2024-02-23T05:36:46;37.74;36.40;39.06;;
41704;Laerm;861;48.808;9.006;2024-02-23T05:39:14;37.79;36.51;38.99;;
41704;Laerm;861;48.808;9.006;2024-02-23T05:41:45;37.79;36.51;38.88;;
41704;Laerm;861;48.808;9.006;2024-02-23T05:44:11;37.78;36.34;39.10;;
41704;Laerm;861;48.808;9.006;2024-02-23T05:46:39;37.83;36.42;39.12;;
41704;Laerm;861;48.808;9.006;2024-02-23T05:49:06;37.81;36.63;39.25;;
41704;Laerm;861;48.808;9.006;2024-02-23T05:51:32;37.81;36.54;38.98;;
41704;Laerm;861;48.808;9.006;2024-02-23T05:54:00;37.81;36.60;38.94;;
41704;Laerm;861;48.808;9.006;2024-02-23T05:56:26;37.72;36.34;39.06;;
41704;Laerm;861;48.808;9.006;2024-02-23T05:58:53;37.76;36.36;38.86;;
41704;Laerm;861;48.808;9.006;2024-02-23T06:01:20;37.75;36.52;38.99;;
41704;Laerm;861;48.808;9.006;2024-02-23T06:03:47;37.77;36.38;39.21;;
41704;Laerm;861;48.808;9.006;2024-02-23T06:06:13;37.76;36.22;38.84;;
41704;Laerm;861;48.808;9.006;2024-02-23T06:08:40;37.82;36.51;39.56;;
41704;Laerm;861;48.808;9.006;2024-02-23T06:11:09;37.83;36.44;39.31;;
41704;Laerm;861;48.808;9.006;2024-02-23T06:13:35;37.78;36.15;39.02;;
41704;Laerm;861;48.808;9.006;2024-02-23T06:16:03;37.74;36.60;39.03;;
41704;Laerm;861;48.808;9.006;2024-02-23T06:18:29;37.78;36.60;39.79;;
41704;Laerm;861;48.808;9.006;2024-02-23T06:20:56;37.72;36.33;38.96;;
41704;Laerm;861;48.808;9.006;2024-02-23T06:23:22;37.72;36.59;38.94;;
41704;Laerm;861;48.808;9.006;2024-02-23T06:25:49;37.72;36.55;38.81;;
41704;Laerm;861;48.808;9.006;2024-02-23T06:28:16;37.73;36.40;38.99;;
41704;Laerm;861;48.808;9.006;2024-02-23T06:30:43;37.69;36.44;38.96;;
41704;Laerm;861;48.808;9.006;2024-02-23T06:33:10;37.69;36.47;39.19;;
41704;Laerm;861;48.808;9.006;2024-02-23T06:35:36;37.60;36.37;38.96;;
41704;Laerm;861;48.808;9.006;2024-02-23T06:38:03;37.63;36.32;38.89;;
41704;Laerm;861;48.808;9.006;2024-02-23T06:40:31;37.62;36.37;38.93;;
41704;Laerm;861;48.808;9.006;2024-02-23T06:42:58;37.64;36.36;39.00;;
41704;Laerm;861;48.808;9.006;2024-02-23T06:45:26;37.64;36.44;38.79;;
41704;Laerm;861;48.808;9.006;2024-02-23T06:47:52;37.66;36.34;38.87;;
41704;Laerm;861;48.808;9.006;2024-02-23T06:50:19;37.62;36.36;38.87;;
41704;Laerm;861;48.808;9.006;2024-02-23T06:52:46;37.61;36.26;38.83;;
41704;Laerm;861;48.808;9.006;2024-02-23T06:55:15;37.62;36.28;38.89;;
41704;Laerm;861;48.808;9.006;2024-02-23T06:57:43;37.63;36.30;39.02;;
41704;Laerm;861;48.808;9.006;2024-02-23T07:00:11;37.63;36.31;38.82;;
41704;Laerm;861;48.808;9.006;2024-02-23T07:02:38;37.63;36.38;38.89;;
41704;Laerm;861;48.808;9.006;2024-02-23T07:05:05;37.64;36.36;38.86;;
41704;Laerm;861;48.808;9.006;2024-02-23T07:07:36;37.64;36.36;38.82;;
41704;Laerm;861;48.808;9.006;2024-02-23T07:10:03;37.66;36.33;38.75;;
41704;Laerm;861;48.808;9.006;2024-02-23T07:12:30;37.65;36.29;38.85;;
41704;Laerm;861;48.808;9.006;2024-02-23T07:14:58;37.66;36.44;38.87;;
41704;Laerm;861;48.808;9.006;2024-02-23T07:17:24;37.71;35.90;39.10;;
41704;Laerm;861;48.808;9.006;2024-02-23T07:19:51;37.69;36.49;38.89;;
41704;Laerm;861;48.808;9.006;2024-02-23T07:22:19;37.70;36.44;38.94;;
41704;Laerm;861;48.808;9.006;2024-02-23T07:24:47;37.71;36.45;38.97;;
41704;Laerm;861;48.808;9.006;2024-02-23T07:27:14;37.71;36.42;38.87;;
41704;Laerm;861;48.808;9.006;2024-02-23T07:29:40;37.74;36.42;39.01;;
41704;Laerm;861;48.808;9.006;2024-02-23T07:32:07;37.75;36.48;38.83;;
41704;Laerm;861;48.808;9.006;2024-02-23T07:34:34;37.75;36.47;38.98;;
41704;Laerm;861;48.808;9.006;2024-02-23T07:37:00;37.76;36.45;39.04;;
41704;Laerm;861;48.808;9.006;2024-02-23T07:39:27;37.76;36.32;38.96;;
41704;Laerm;861;48.808;9.006;2024-02-23T07:41:54;37.78;36.45;39.08;;
41704;Laerm;861;48.808;9.006;2024-02-23T07:44:20;37.76;36.41;38.99;;
41704;Laerm;861;48.808;9.006;2024-02-23T07:46:47;37.75;36.51;38.79;;
41704;Laerm;861;48.808;9.006;2024-02-23T07:49:14;37.74;36.45;39.03;;
41704;Laerm;861;48.808;9.006;2024-02-23T07:51:40;37.73;36.30;38.90;;
41704;Laerm;861;48.808;9.006;2024-02-23T07:54:07;37.76;36.50;38.94;;
41704;Laerm;861;48.808;9.006;2024-02-23T07:56:33;37.73;36.46;39.10;;
41704;Laerm;861;48.808;9.006;2024-02-23T07:59:00;37.74;36.39;39.12;;
41704;Laerm;861;48.808;9.006;2024-02-23T08:01:29;37.73;36.29;38.98;;
41704;Laerm;861;48.808;9.006;2024-02-23T08:03:57;37.73;36.29;38.93;;
41704;Laerm;861;48.808;9.006;2024-02-23T08:06:24;37.76;36.31;38.91;;
41704;Laerm;861;48.808;9.006;2024-02-23T08:08:55;37.77;36.42;38.89;;
41704;Laerm;861;48.808;9.006;2024-02-23T08:11:21;37.75;36.42;39.22;;
41704;Laerm;861;48.808;9.006;2024-02-23T08:13:48;37.76;36.53;39.03;;
41704;Laerm;861;48.808;9.006;2024-02-23T08:16:17;37.77;36.23;38.95;;
41704;Laerm;861;48.808;9.006;2024-02-23T08:18:44;37.76;36.42;39.00;;
41704;Laerm;861;48.808;9.006;2024-02-23T08:21:13;37.77;36.49;38.95;;
41704;Laerm;861;48.808;9.006;2024-02-23T08:23:40;37.76;36.51;39.04;;
41704;Laerm;861;48.808;9.006;2024-02-23T08:26:07;37.78;36.64;39.03;;
41704;Laerm;861;48.808;9.006;2024-02-23T08:28:33;37.78;36.52;39.21;;
41704;Laerm;861;48.808;9.006;2024-02-23T08:31:00;37.80;36.51;39.21;;
41704;Laerm;861;48.808;9.006;2024-02-23T08:33:27;37.79;36.39;39.18;;
41704;Laerm;861;48.808;9.006;2024-02-23T08:35:54;37.81;36.25;39.03;;
41704;Laerm;861;48.808;9.006;2024-02-23T08:38:20;37.81;36.18;39.79;;
41704;Laerm;861;48.808;9.006;2024-02-23T08:40:47;37.78;36.54;39.09;;
41704;Laerm;861;48.808;9.006;2024-02-23T08:43:14;37.77;36.55;38.98;;
41704;Laerm;861;48.808;9.006;2024-02-23T08:45:41;37.75;36.36;39.08;;
41704;Laerm;861;48.808;9.006;2024-02-23T08:48:08;37.79;36.42;42.06;;
41704;Laerm;861;48.808;9.006;2024-02-23T08:50:35;37.79;36.58;39.22;;
41704;Laerm;861;48.808;9.006;2024-02-23T08:53:01;37.81;36.19;40.61;;
41704;Laerm;861;48.808;9.006;2024-02-23T08:55:29;37.81;36.53;39.04;;
41704;Laerm;861;48.808;9.006;2024-02-23T08:57:55;37.85;36.56;39.67;;
41704;Laerm;861;48.808;9.006;2024-02-23T09:00:22;37.88;36.41;39.20;;
41704;Laerm;861;48.808;9.006;2024-02-23T09:02:50;37.85;36.55;40.58;;
41704;Laerm;861;48.808;9.006;2024-02-23T09:05:17;37.85;36.36;39.26;;
41704;Laerm;861;48.808;9.006;2024-02-23T09:07:44;37.86;36.50;39.23;;
41704;Laerm;861;48.808;9.006;2024-02-23T09:10:11;37.98;36.64;49.19;;
41704;Laerm;861;48.808;9.006;2024-02-23T09:12:38;37.92;36.58;39.66;;
41704;Laerm;861;48.808;9.006;2024-02-23T09:15:06;37.92;36.46;39.05;;
41704;Laerm;861;48.808;9.006;2024-02-23T09:17:33;37.92;36.23;39.21;;
41704;Laerm;861;48.808;9.006;2024-02-23T09:19:59;37.92;36.63;39.05;;
41704;Laerm;861;48.808;9.006;2024-02-23T09:22:26;37.95;36.64;39.80;;
41704;Laerm;861;48.808;9.006;2024-02-23T09:24:53;37.93;36.72;39.12;;
41704;Laerm;861;48.808;9.006;2024-02-23T09:27:23;37.91;36.44;39.80;;
41704;Laerm;861;48.808;9.006;2024-02-23T09:29:49;37.90;36.56;40.15;;
41704;Laerm;861;48.808;9.006;2024-02-23T09:32:17;38.00;36.46;47.50;;
41704;Laerm;861;48.808;9.006;2024-02-23T09:34:43;37.94;36.38;40.06;;
41704;Laerm;861;48.808;9.006;2024-02-23T09:37:10;38.04;36.63;44.41;;
41704;Laerm;861;48.808;9.006;2024-02-23T09:39:36;37.94;36.53;39.51;;
41704;Laerm;861;48.808;9.006;2024-02-23T09:42:10;37.98;36.57;39.16;;
41704;Laerm;861;48.808;9.006;2024-02-23T09:44:37;38.00;36.74;39.50;;
41704;Laerm;861;48.808;9.006;2024-02-23T09:47:07;38.43;36.68;48.52;;
41704;Laerm;861;48.808;9.006;2024-02-23T09:49:40;38.13;36.92;47.17;;
41704;Laerm;861;48.808;9.006;2024-02-23T09:52:11;38.02;36.67;39.24;;
41704;Laerm;861;48.808;9.006;2024-02-23T09:54:39;38.67;36.73;51.18;;
41704;Laerm;861;48.808;9.006;2024-02-23T09:57:10;38.17;36.70;47.21;;
41704;Laerm;861;48.808;9.006;2024-02-23T09:59:37;38.04;36.73;44.97;;
41704;Laerm;861;48.808;9.006;2024-02-23T10:02:25;38.60;36.53;52.42;;
41704;Laerm;861;48.808;9.006;2024-02-23T10:04:55;38.04;36.61;43.42;;
41704;Laerm;861;48.808;9.006;2024-02-23T10:07:25;39.33;36.59;51.09;;
41704;Laerm;861;48.808;9.006;2024-02-23T10:09:52;40.12;36.48;60.34;;
41704;Laerm;861;48.808;9.006;2024-02-23T10:12:19;38.29;36.76;51.98;;
41704;Laerm;861;48.808;9.006;2024-02-23T10:14:46;38.53;36.37;51.87;;
41704;Laerm;861;48.808;9.006;2024-02-23T10:17:12;37.95;36.52;42.80;;
41704;Laerm;861;48.808;9.006;2024-02-23T10:19:39;37.97;36.58;44.27;;
41704;Laerm;861;48.808;9.006;2024-02-23T10:22:06;38.07;36.65;48.65;;
41704;Laerm;861;48.808;9.006;2024-02-23T10:24:32;38.88;36.78;52.59;;
41704;Laerm;861;48.808;9.006;2024-02-23T10:27:00;38.38;36.50;49.15;;
41704;Laerm;861;48.808;9.006;2024-02-23T10:29:30;38.01;36.60;42.63;;
41704;Laerm;861;48.808;9.006;2024-02-23T10:31:59;38.01;36.64;43.81;;
41704;Laerm;861;48.808;9.006;2024-02-23T10:34:31;38.13;36.57;52.47;;
41704;Laerm;861;48.808;9.006;2024-02-23T10:36:58;37.97;36.53;41.88;;
41704;Laerm;861;48.808;9.006;2024-02-23T10:39:30;37.89;36.44;44.26;;
41704;Laerm;861;48.808;9.006;2024-02-23T10:42:03;37.84;36.42;39.61;;
41704;Laerm;861;48.808;9.006;2024-02-23T10:44:31;38.07;36.41;49.19;;
41704;Laerm;861;48.808;9.006;2024-02-23T10:47:00;37.77;36.26;39.12;;
41704;Laerm;861;48.808;9.006;2024-02-23T10:49:27;37.77;36.39;40.83;;
41704;Laerm;861;48.808;9.006;2024-02-23T10:51:55;37.85;36.45;46.01;;
41704;Laerm;861;48.808;9.006;2024-02-23T10:54:22;37.73;36.36;38.93;;
41704;Laerm;861;48.808;9.006;2024-02-23T10:56:53;37.76;36.56;39.11;;
41704;Laerm;861;48.808;9.006;2024-02-23T10:59:22;37.80;36.34;41.95;;
41704;Laerm;861;48.808;9.006;2024-02-23T11:01:54;37.81;36.14;39.51;;
41704;Laerm;861;48.808;9.006;2024-02-23T11:04:27;38.08;36.19;49.04;;
41704;Laerm;861;48.808;9.006;2024-02-23T11:06:57;37.80;36.55;41.84;;
41704;Laerm;861;48.808;9.006;2024-02-23T11:09:26;37.81;36.49;42.53;;
41704;Laerm;861;48.808;9.006;2024-02-23T11:11:58;37.79;36.30;39.03;;
41704;Laerm;861;48.808;9.006;2024-02-23T11:14:38;37.83;36.48;38.98;;
41704;Laerm;861;48.808;9.006;2024-02-23T11:17:06;37.68;36.39;39.21;;
41704;Laerm;861;48.808;9.006;2024-02-23T11:19:39;37.70;36.26;39.02;;
41704;Laerm;861;48.808;9.006;2024-02-23T11:22:11;37.63;36.04;42.72;;
41704;Laerm;861;48.808;9.006;2024-02-23T11:24:45;37.81;36.26;46.75;;
41704;Laerm;861;48.808;9.006;2024-02-23T11:27:16;37.66;36.18;46.11;;
41704;Laerm;861;48.808;9.006;2024-02-23T11:29:47;37.69;36.23;44.89;;
41704;Laerm;861;48.808;9.006;2024-02-23T11:32:17;37.67;36.20;40.12;;
41704;Laerm;861;48.808;9.006;2024-02-23T11:34:57;37.98;36.27;47.65;;
41704;Laerm;861;48.808;9.006;2024-02-23T11:37:28;37.66;36.43;38.99;;
41704;Laerm;861;48.808;9.006;2024-02-23T11:39:56;37.80;35.83;45.26;;
41704;Laerm;861;48.808;9.006;2024-02-23T11:42:26;37.79;36.38;44.73;;
41704;Laerm;861;48.808;9.006;2024-02-23T11:44:54;38.06;36.13;53.34;;
41704;Laerm;861;48.808;9.006;2024-02-23T11:47:21;39.19;36.27;55.53;;
41704;Laerm;861;48.808;9.006;2024-02-23T11:49:47;38.62;36.42;54.90;;
41704;Laerm;861;48.808;9.006;2024-02-23T11:52:14;37.84;36.44;45.33;;
41704;Laerm;861;48.808;9.006;2024-02-23T11:54:41;37.71;36.21;42.12;;
41704;Laerm;861;48.808;9.006;2024-02-23T11:57:08;37.95;36.53;47.23;;
41704;Laerm;861;48.808;9.006;2024-02-23T11:59:35;37.70;36.07;38.88;;
41704;Laerm;861;48.808;9.006;2024-02-23T12:02:01;37.74;36.40;40.25;;
41704;Laerm;861;48.808;9.006;2024-02-23T12:04:28;38.05;35.95;47.57;;
41704;Laerm;861;48.808;9.006;2024-02-23T12:06:57;37.75;36.43;41.61;;
41704;Laerm;861;48.808;9.006;2024-02-23T12:09:24;37.77;36.11;47.67;;
41704;Laerm;861;48.808;9.006;2024-02-23T12:11:52;37.58;36.13;40.21;;
41704;Laerm;861;48.808;9.006;2024-02-23T12:14:18;37.41;36.03;40.79;;
41704;Laerm;861;48.808;9.006;2024-02-23T12:16:46;37.42;36.05;40.61;;
41704;Laerm;861;48.808;9.006;2024-02-23T12:19:12;37.32;35.92;39.91;;
41704;Laerm;861;48.808;9.006;2024-02-23T12:21:39;37.27;35.81;43.75;;
41704;Laerm;861;48.808;9.006;2024-02-23T12:24:06;38.94;36.00;55.30;;
41704;Laerm;861;48.808;9.006;2024-02-23T12:26:36;37.68;35.93;48.95;;
41704;Laerm;861;48.808;9.006;2024-02-23T12:29:05;37.81;36.07;50.27;;
41704;Laerm;861;48.808;9.006;2024-02-23T12:31:34;38.07;36.15;52.85;;
41704;Laerm;861;48.808;9.006;2024-02-23T12:34:01;37.66;36.05;45.72;;
41704;Laerm;861;48.808;9.006;2024-02-23T12:36:29;37.58;36.07;47.18;;
41704;Laerm;861;48.808;9.006;2024-02-23T12:38:57;37.53;36.13;45.15;;
41704;Laerm;861;48.808;9.006;2024-02-23T12:41:23;37.55;36.07;46.98;;
41704;Laerm;861;48.808;9.006;2024-02-23T12:43:50;38.43;36.19;53.65;;
41704;Laerm;861;48.808;9.006;2024-02-23T12:46:16;38.00;36.15;48.69;;
41704;Laerm;861;48.808;9.006;2024-02-23T12:48:43;38.26;36.05;53.70;;
41704;Laerm;861;48.808;9.006;2024-02-23T12:51:10;37.60;36.08;44.31;;
41704;Laerm;861;48.808;9.006;2024-02-23T12:53:39;38.19;36.04;50.63;;
41704;Laerm;861;48.808;9.006;2024-02-23T12:56:13;37.77;35.94;48.46;;
41704;Laerm;861;48.808;9.006;2024-02-23T12:58:43;37.61;36.11;43.97;;
41704;Laerm;861;48.808;9.006;2024-02-23T13:01:11;37.50;35.72;38.90;;
41704;Laerm;861;48.808;9.006;2024-02-23T13:03:40;37.60;35.98;42.50;;
41704;Laerm;861;48.808;9.006;2024-02-23T13:06:07;37.49;36.17;43.72;;
41704;Laerm;861;48.808;9.006;2024-02-23T13:08:34;37.45;36.11;40.08;;
41704;Laerm;861;48.808;9.006;2024-02-23T13:11:03;37.45;35.96;41.85;;
41704;Laerm;861;48.808;9.006;2024-02-23T13:13:29;37.45;35.99;39.98;;
41704;Laerm;861;48.808;9.006;2024-02-23T13:15:56;37.54;36.04;43.86;;
41704;Laerm;861;48.808;9.006;2024-02-23T13:18:23;37.47;36.02;41.04;;
41704;Laerm;861;48.808;9.006;2024-02-23T13:20:51;37.47;36.17;43.48;;
41704;Laerm;861;48.808;9.006;2024-02-23T13:23:18;37.44;36.12;43.47;;
41704;Laerm;861;48.808;9.006;2024-02-23T13:25:46;37.40;36.06;39.70;;
41704;Laerm;861;48.808;9.006;2024-02-23T13:28:13;37.60;36.11;45.24;;
41704;Laerm;861;48.808;9.006;2024-02-23T13:30:39;37.46;35.84;41.05;;
41704;Laerm;861;48.808;9.006;2024-02-23T13:33:08;37.73;35.98;46.90;;
41704;Laerm;861;48.808;9.006;2024-02-23T13:35:37;37.46;35.93;44.16;;
41704;Laerm;861;48.808;9.006;2024-02-23T13:38:03;37.41;36.07;38.65;;
41704;Laerm;861;48.808;9.006;2024-02-23T13:40:31;37.47;35.85;38.80;;
41704;Laerm;861;48.808;9.006;2024-02-23T13:42:58;37.52;36.06;38.91;;
41704;Laerm;861;48.808;9.006;2024-02-23T13:45:25;37.50;36.19;39.47;;
41704;Laerm;861;48.808;9.006;2024-02-23T13:48:02;38.37;36.00;50.26;;
41704;Laerm;861;48.808;9.006;2024-02-23T13:50:29;37.52;36.18;38.80;;
41704;Laerm;861;48.808;9.006;2024-02-23T13:52:56;37.60;35.91;41.73;;
41704;Laerm;861;48.808;9.006;2024-02-23T13:55:23;37.62;36.15;44.16;;
41704;Laerm;861;48.808;9.006;2024-02-23T13:57:50;37.60;36.24;46.65;;
41704;Laerm;861;48.808;9.006;2024-02-23T14:00:20;37.53;36.13;42.04;;
41704;Laerm;861;48.808;9.006;2024-02-23T14:02:47;37.52;35.81;39.90;;
41704;Laerm;861;48.808;9.006;2024-02-23T14:05:14;37.53;36.24;39.76;;
41704;Laerm;861;48.808;9.006;2024-02-23T14:07:44;37.52;36.21;39.94;;
41704;Laerm;861;48.808;9.006;2024-02-23T14:10:11;37.55;36.19;45.58;;